Time;durP1;ratioP1;P1;durP2;ratioP2;P2;SDS_P1;SDS_P2;PMS_P1;PMS_P2;Temp;Humidity;BMP_temperature;BMP_pressure;BME280_temperature;BME280_humidity;BME280_pressure;Samples;Min_cycle;Max_cycle;Signal;HPM_P1;HPM_P2
2021/05/06 00:32:36;;;;;;;9.18;1.87;;;;;;;5.37;59.93;99487.17;2200860;79;31559;-62
2021/05/06 00:35:38;;;;;;;8.53;1.92;;;;;;;5.35;59.54;99481.05;2196743;79;33155;-62
2021/05/06 00:38:46;;;;;;;9.25;2.95;;;;;;;5.34;59.42;99487.29;2196021;81;29277;-62
2021/05/06 01:11:27;;;;;;;4.37;1.80;;;;;;;5.10;60.09;99500.63;2331969;76;27655;-60
2021/05/06 01:14:22;;;;;;;7.62;2.20;;;;;;;5.01;60.07;99500.52;2276577;77;28151;-60
2021/05/06 01:17:24;;;;;;;5.28;1.60;;;;;;;5.00;60.19;99497.47;2303299;77;31163;-61
2021/05/06 01:20:27;;;;;;;6.50;2.80;;;;;;;4.98;60.19;99500.64;2302582;77;32827;-59
2021/05/06 01:23:34;;;;;;;4.60;1.50;;;;;;;4.96;60.18;99506.50;2298631;77;33107;-59
2021/05/06 01:26:47;;;;;;;3.83;1.47;;;;;;;4.93;60.15;99504.41;2303651;77;28641;-61
2021/05/06 01:33:09;;;;;;;4.13;1.50;;;;;;;4.93;60.55;99509.72;2341968;76;27647;-61
2021/05/06 01:36:15;;;;;;;3.00;1.50;;;;;;;4.86;60.58;99519.27;2303080;77;27624;-62
2021/05/06 01:42:38;;;;;;;5.25;1.85;;;;;;;4.83;60.81;99527.34;2292777;77;31189;-62
2021/05/06 02:02:09;;;;;;;5.70;1.97;;;;;;;4.97;60.84;99523.27;2248605;78;27795;-61
2021/05/06 02:05:13;;;;;;;6.00;1.90;;;;;;;4.95;60.81;99524.67;2225710;79;27653;-63
2021/05/06 02:08:15;;;;;;;7.10;2.47;;;;;;;4.96;60.85;99517.12;2202275;78;28870;-60
2021/05/06 02:11:17;;;;;;;6.20;1.98;;;;;;;4.96;60.84;99527.73;2196161;79;33480;-63
2021/05/06 02:14:19;;;;;;;5.47;1.65;;;;;;;4.97;60.75;99524.12;2224256;79;33109;-62
2021/05/06 02:17:21;;;;;;;3.25;1.67;;;;;;;4.93;60.84;99521.21;2228506;79;28547;-63
2021/05/06 02:20:24;;;;;;;4.55;1.90;;;;;;;4.93;60.82;99525.64;2228662;79;27647;-63
2021/05/06 02:23:26;;;;;;;8.25;2.27;;;;;;;4.89;60.72;99535.52;2221584;79;28840;-62
2021/05/06 02:26:28;;;;;;;4.22;2.02;;;;;;;4.86;60.88;99532.98;2228663;79;31149;-63
2021/05/06 02:29:32;;;;;;;5.08;1.70;;;;;;;4.84;60.78;99538.80;2227249;79;33132;-62
2021/05/06 02:32:34;;;;;;;5.12;1.65;;;;;;;4.79;60.81;99542.11;2187476;81;28840;-62
2021/05/06 02:35:38;;;;;;;5.17;1.65;;;;;;;4.75;60.81;99544.47;2217881;80;27599;-62
2021/05/06 02:38:41;;;;;;;5.47;1.60;;;;;;;4.71;60.94;99543.73;2202429;80;28825;-62
2021/05/06 02:41:43;;;;;;;3.55;1.72;;;;;;;4.69;60.89;99549.55;2181210;80;32640;-63
2021/05/06 02:44:46;;;;;;;4.75;1.40;;;;;;;4.68;61.09;99549.15;2176454;80;33246;-63
2021/05/06 02:47:48;;;;;;;6.10;1.42;;;;;;;4.66;61.05;99554.49;2199012;80;28842;-63
2021/05/06 02:50:57;;;;;;;3.98;1.50;;;;;;;4.65;61.02;99556.74;2197289;80;27547;-62
2021/05/06 02:53:57;;;;;;;6.90;1.70;;;;;;;4.65;61.02;99559.39;2189674;80;28829;-63
2021/05/06 02:57:07;;;;;;;7.55;2.20;;;;;;;4.64;60.92;99560.79;2215169;80;31213;-63
2021/05/06 03:03:36;;;;;;;;;;;;;;;4.61;60.92;99565.77;2137487;82;29754;-60
2021/05/06 03:06:38;;;;;;;2.85;1.45;;;;;;;4.61;61.18;99563.55;2153735;82;27674;-62
2021/05/06 03:26:03;;;;;;;5.70;2.50;;;;;;;4.63;61.32;99574.98;2305575;74;27683;-63
2021/05/06 03:29:13;;;;;;;6.30;2.45;;;;;;;4.63;61.20;99579.84;2262614;77;28553;-61
2021/05/06 03:46:12;;;;;;;9.07;3.63;;;;;;;5.25;60.80;99580.14;2397671;74;27726;-61
2021/05/06 04:18:56;;;;;;;8.03;2.70;;;;;;;5.60;60.55;99623.04;2324944;76;27614;-61
2021/05/06 04:22:21;;;;;;;8.43;3.62;;;;;;;5.61;60.54;99623.89;2261993;78;27756;-61
2021/05/06 04:37:51;;;;;;;7.87;3.33;;;;;;;6.09;60.34;99640.59;2262193;77;27835;-63
2021/05/06 04:57:18;;;;;;;4.58;2.98;;;;;;;9.21;59.41;99636.38;2264887;78;33896;-61
2021/05/06 05:03:40;;;;;;;5.47;2.22;;;;;;;11.42;57.33;99629.72;2284931;77;27756;-63
2021/05/06 05:06:52;;;;;;;5.12;2.67;;;;;;;12.56;55.83;99624.88;2282843;77;29528;-65
2021/05/06 05:19:56;;;;;;;6.10;3.00;;;;;;;15.71;51.17;99615.35;2207682;80;28058;-64
2021/05/06 05:26:03;;;;;;;3.17;2.20;;;;;;;16.98;49.72;99610.95;2234697;79;31110;-64
2021/05/06 05:29:03;;;;;;;6.65;3.20;;;;;;;17.54;48.47;99618.23;2220754;79;34141;-65
2021/05/06 05:32:06;;;;;;;6.10;3.02;;;;;;;17.87;47.24;99622.09;2212763;80;28852;-65
2021/05/06 05:35:15;;;;;;;10.10;4.60;;;;;;;18.17;46.34;99620.30;2223695;79;27786;-65
2021/05/06 05:54:36;;;;;;;5.65;2.60;;;;;;;20.15;42.15;99629.84;2204266;79;29648;-61
2021/05/06 05:57:37;;;;;;;6.22;3.02;;;;;;;20.52;41.14;99622.52;2177851;81;31733;-62
2021/05/06 06:00:39;;;;;;;4.47;2.67;;;;;;;20.76;40.34;99622.39;2192524;80;34029;-62
2021/05/06 06:03:42;;;;;;;3.67;2.62;;;;;;;20.83;38.37;99615.80;2205079;80;28738;-60
2021/05/06 06:06:44;;;;;;;5.72;2.30;;;;;;;20.81;38.92;99623.27;2182989;81;27603;-73
2021/05/06 06:09:46;;;;;;;4.15;2.30;;;;;;;20.87;38.29;99611.72;2203004;80;29026;-73
2021/05/06 06:12:48;;;;;;;7.15;2.67;;;;;;;21.34;38.59;99615.91;2184148;81;32045;-72
2021/05/06 06:15:59;;;;;;;5.80;2.90;;;;;;;21.22;37.61;99609.39;2212966;80;33098;-73
2021/05/06 06:18:59;;;;;;;8.23;2.40;;;;;;;21.44;37.45;99617.14;2210092;80;29234;-61
2021/05/06 06:22:08;;;;;;;5.08;2.72;;;;;;;21.77;36.71;99613.20;2226345;80;33547;-61
2021/05/06 06:25:11;;;;;;;6.08;2.20;;;;;;;22.08;35.99;99612.59;2184537;80;28673;-61
2021/05/06 06:28:13;;;;;;;15.53;10.00;;;;;;;22.27;35.75;99604.09;2195755;80;31149;-61
2021/05/06 06:31:22;;;;;;;13.83;8.70;;;;;;;22.52;35.60;99613.66;2215004;80;33562;-62
2021/05/06 06:34:23;;;;;;;7.47;3.98;;;;;;;22.81;35.06;99608.69;2215210;80;29825;-64
2021/05/06 06:37:25;;;;;;;9.48;4.15;;;;;;;23.03;34.48;99609.84;2215145;80;27696;-61
2021/05/06 06:40:27;;;;;;;7.15;2.92;;;;;;;23.26;34.17;99613.23;2215097;80;29364;-62
2021/05/06 06:43:30;;;;;;;3.70;2.60;;;;;;;23.48;33.94;99608.38;2215178;80;33483;-62
2021/05/06 06:46:32;;;;;;;5.28;2.52;;;;;;;23.70;33.28;99605.85;2207401;80;34001;-62
2021/05/06 06:49:40;;;;;;;5.50;2.77;;;;;;;23.85;32.94;99605.95;2200125;80;30231;-61
2021/05/06 06:52:44;;;;;;;8.70;4.78;;;;;;;24.18;32.66;99605.77;2189885;80;27696;-61
2021/05/06 06:55:46;;;;;;;6.23;3.17;;;;;;;24.47;32.54;99591.00;2184714;80;28818;-63
2021/05/06 06:58:51;;;;;;;7.22;3.17;;;;;;;24.59;31.94;99597.73;2183273;80;31152;-63
2021/05/06 07:01:53;;;;;;;6.17;3.22;;;;;;;24.81;31.62;99596.54;2183882;81;34038;-63
2021/05/06 07:04:55;;;;;;;5.10;2.77;;;;;;;24.98;31.32;99594.47;2183715;81;28793;-63
2021/05/06 07:08:18;;;;;;;5.25;3.98;;;;;;;25.14;31.03;99592.08;2183925;81;27727;-65
2021/05/06 07:11:20;;;;;;;5.60;4.72;;;;;;;25.31;30.83;99596.33;2183794;80;28812;-64
2021/05/06 07:14:22;;;;;;;5.25;2.85;;;;;;;25.46;30.79;99586.72;2183642;81;31592;-64
2021/05/06 07:17:25;;;;;;;6.25;3.65;;;;;;;25.63;30.21;99590.63;2183750;80;33106;-65
2021/05/06 07:20:27;;;;;;;3.80;2.75;;;;;;;25.61;29.20;99597.69;2183056;81;28863;-64
2021/05/06 07:23:31;;;;;;;4.37;2.45;;;;;;;25.31;29.77;99597.70;2183839;81;27660;-66
2021/05/06 07:26:33;;;;;;;5.37;2.90;;;;;;;24.95;29.65;99598.95;2183999;81;28824;-65
2021/05/06 07:29:36;;;;;;;3.67;2.77;;;;;;;24.85;29.67;99592.36;2183741;81;32056;-64
2021/05/06 07:32:38;;;;;;;5.22;2.77;;;;;;;24.51;29.75;99590.95;2183648;81;33100;-62
2021/05/06 07:35:41;;;;;;;3.37;2.77;;;;;;;23.88;29.42;99589.69;2182721;81;29754;-62
2021/05/06 07:38:44;;;;;;;6.42;3.12;;;;;;;23.62;29.59;99586.77;2183540;81;27630;-62
2021/05/06 07:41:47;;;;;;;6.72;2.65;;;;;;;23.76;29.78;99591.47;2199637;80;29104;-62
2021/05/06 07:44:50;;;;;;;6.60;2.77;;;;;;;23.64;29.83;99588.28;2198962;80;31147;-64
2021/05/06 07:47:52;;;;;;;3.77;2.62;;;;;;;23.89;28.92;99576.34;2199328;79;34639;-66
2021/05/06 07:50:55;;;;;;;5.80;2.98;;;;;;;24.16;28.99;99578.26;2199201;80;28860;-63
2021/05/06 07:54:04;;;;;;;3.92;2.20;;;;;;;24.57;29.21;99580.63;2199777;80;27701;-63
2021/05/06 07:57:02;;;;;;;3.25;2.10;;;;;;;24.71;28.24;99579.84;2198622;80;28822;-65
2021/05/06 08:00:15;;;;;;;3.98;2.40;;;;;;;24.87;28.14;99574.72;2198749;80;31182;-63
2021/05/06 08:03:18;;;;;;;3.33;2.15;;;;;;;24.82;28.00;99574.95;2199420;80;33106;-65
2021/05/06 08:06:21;;;;;;;4.20;2.45;;;;;;;24.72;28.31;99574.69;2199644;80;29033;-64
2021/05/06 08:09:23;;;;;;;5.53;2.52;;;;;;;24.90;28.21;99566.63;2199018;80;27583;-65
2021/05/06 08:12:26;;;;;;;2.98;2.52;;;;;;;24.71;27.70;99563.94;2199515;80;29949;-63
2021/05/06 08:15:30;;;;;;;3.35;2.67;;;;;;;24.51;27.70;99572.64;2198943;80;32148;-65
2021/05/06 08:18:32;;;;;;;4.73;2.40;;;;;;;24.30;27.47;99567.88;2199637;80;33122;-65
2021/05/06 08:21:34;;;;;;;4.35;2.80;;;;;;;23.62;27.31;99571.20;2198825;80;31145;-64
2021/05/06 08:24:37;;;;;;;3.75;2.20;;;;;;;22.95;27.34;99577.09;2199595;80;27763;-64
2021/05/06 08:27:39;;;;;;;3.42;2.58;;;;;;;22.51;27.80;99574.27;2199413;80;31106;-64
2021/05/06 08:30:43;;;;;;;3.02;2.27;;;;;;;21.99;27.00;99582.59;2199420;80;30463;-62
2021/05/06 08:33:45;;;;;;;5.55;2.95;;;;;;;21.32;27.50;99585.25;2199192;80;33119;-62
2021/05/06 08:36:48;;;;;;;3.47;2.90;;;;;;;20.86;28.13;99581.42;2199547;80;28876;-64
2021/05/06 08:39:51;;;;;;;5.20;2.80;;;;;;;20.60;28.32;99591.78;2198918;80;28211;-63
2021/05/06 08:42:54;;;;;;;4.95;3.45;;;;;;;20.19;28.54;99597.23;2199376;80;28825;-62
2021/05/06 08:45:58;;;;;;;4.33;2.43;;;;;;;20.07;28.75;99591.69;2199673;80;31124;-65
2021/05/06 08:49:07;;;;;;;5.37;3.02;;;;;;;19.77;28.71;99598.33;2199558;80;33106;-65
2021/05/06 08:52:12;;;;;;;5.65;2.58;;;;;;;19.34;29.10;99602.91;2199204;80;28843;-64
2021/05/06 08:55:15;;;;;;;5.47;2.10;;;;;;;18.89;29.31;99602.28;2199277;80;27804;-63
2021/05/06 08:58:18;;;;;;;4.62;1.87;;;;;;;18.42;29.14;99599.88;2199446;80;28818;-64
2021/05/06 09:01:20;;;;;;;3.30;1.90;;;;;;;18.45;29.14;99594.66;2198480;80;31132;-64
2021/05/06 09:04:22;;;;;;;3.40;2.10;;;;;;;18.58;29.81;99593.00;2199201;80;33179;-65
2021/05/06 09:07:26;;;;;;;4.78;2.65;;;;;;;18.84;29.82;99591.88;2199434;80;28868;-63
2021/05/06 09:10:40;;;;;;;3.85;2.02;;;;;;;18.99;29.58;99592.27;2198898;80;27754;-64
2021/05/06 09:13:43;;;;;;;2.75;2.10;;;;;;;19.18;29.42;99586.41;2199337;80;28817;-66
2021/05/06 09:16:46;;;;;;;3.37;2.33;;;;;;;19.50;28.90;99594.12;2199397;80;31130;-65
2021/05/06 09:20:11;;;;;;;6.90;2.15;;;;;;;19.64;28.27;99590.54;2199256;80;33084;-65
2021/05/06 09:23:13;;;;;;;3.83;1.87;;;;;;;19.63;28.20;99590.19;2199558;80;28862;-64
2021/05/06 09:26:15;;;;;;;3.17;1.90;;;;;;;19.70;28.37;99583.98;2199350;80;27683;-64
2021/05/06 09:29:41;;;;;;;6.85;2.15;;;;;;;19.94;28.78;99588.50;2198057;80;28825;-65
2021/05/06 09:32:44;;;;;;;2.20;1.50;;;;;;;19.85;28.54;99586.17;2198738;80;32029;-65
2021/05/06 09:35:49;;;;;;;4.35;2.10;;;;;;;19.98;28.44;99592.11;2199458;80;33539;-63
2021/05/06 09:38:53;;;;;;;5.08;2.05;;;;;;;20.07;28.32;99586.77;2199464;80;28905;-64
2021/05/06 09:42:11;;;;;;;3.70;2.42;;;;;;;20.09;27.61;99572.52;2199786;80;27647;-64
2021/05/06 09:45:25;;;;;;;2.25;1.72;;;;;;;20.03;27.92;99588.43;2199347;80;28803;-63
2021/05/06 09:48:28;;;;;;;4.42;2.15;;;;;;;19.71;27.42;99580.75;2199255;80;31229;-64
2021/05/06 09:51:43;;;;;;;4.67;1.85;;;;;;;19.49;27.69;99577.96;2198984;80;33106;-62
2021/05/06 09:54:53;;;;;;;1.82;1.25;;;;;;;19.51;28.50;99575.47;2198783;80;29369;-63
2021/05/06 09:58:13;;;;;;;5.12;2.77;;;;;;;19.60;27.79;99573.70;2199576;80;27781;-65
2021/05/06 10:01:15;;;;;;;4.55;2.45;;;;;;;19.63;27.97;99566.57;2199268;80;28829;-65
2021/05/06 10:04:24;;;;;;;2.45;2.10;;;;;;;19.57;27.68;99577.55;2190832;80;31151;-62
2021/05/06 10:07:27;;;;;;;12.05;6.25;;;;;;;19.49;27.30;99570.69;2183601;80;33368;-62
2021/05/06 10:10:30;;;;;;;7.40;4.70;;;;;;;19.38;28.11;99569.02;2183639;81;28903;-62
2021/05/06 10:13:33;;;;;;;3.10;2.00;;;;;;;19.33;28.17;99568.61;2183644;81;27960;-62
2021/05/06 10:16:36;;;;;;;12.20;5.12;;;;;;;19.25;27.79;99573.96;2183629;81;28942;-62
2021/05/06 10:19:39;;;;;;;14.75;6.53;;;;;;;19.24;27.92;99574.45;2183585;81;31080;-64
2021/05/06 10:22:43;;;;;;;6.05;3.58;;;;;;;19.25;28.10;99578.03;2183536;81;33109;-62
2021/05/06 10:25:46;;;;;;;10.07;4.07;;;;;;;19.30;28.56;99568.91;2199494;80;28932;-63
2021/05/06 10:28:52;;;;;;;4.37;2.30;;;;;;;19.36;28.62;99560.17;2199209;80;27688;-61
2021/05/06 10:31:55;;;;;;;2.67;1.82;;;;;;;19.15;28.03;99550.05;2193583;80;28824;-63
2021/05/06 10:35:01;;;;;;;2.62;2.00;;;;;;;18.89;28.34;99544.77;2183530;81;31201;-62
2021/05/06 10:38:04;;;;;;;1.90;1.70;;;;;;;18.71;28.53;99548.77;2183144;81;33096;-62
2021/05/06 10:41:29;;;;;;;4.30;2.55;;;;;;;18.44;28.57;99541.41;2183651;81;28861;-62
2021/05/06 10:44:36;;;;;;;2.75;1.65;;;;;;;18.21;28.83;99543.95;2190926;80;27744;-62
2021/05/06 10:47:47;;;;;;;3.98;2.22;;;;;;;18.12;29.42;99537.18;2196789;80;28881;-63
2021/05/06 10:50:51;;;;;;;6.00;2.50;;;;;;;18.07;29.38;99534.91;2195547;80;31551;-64
2021/05/06 10:53:53;;;;;;;5.47;2.50;;;;;;;18.06;29.95;99534.03;2211853;80;33116;-63
2021/05/06 10:56:57;;;;;;;4.12;2.52;;;;;;;18.11;30.02;99519.20;2211877;80;30092;-62
2021/05/06 11:00:00;;;;;;;6.00;2.53;;;;;;;18.15;30.10;99527.41;2212250;80;27625;-62
2021/05/06 11:03:04;;;;;;;3.45;2.33;;;;;;;18.13;29.59;99528.89;2212109;80;29205;-62
2021/05/06 11:06:08;;;;;;;3.80;2.72;;;;;;;18.04;29.53;99531.13;2217404;80;31864;-62
2021/05/06 11:09:42;;;;;;;4.85;2.40;;;;;;;18.01;29.48;99525.98;2217229;80;34126;-62
2021/05/06 11:12:49;;;;;;;4.87;2.55;;;;;;;17.93;29.60;99525.31;2216668;80;29165;-62
2021/05/06 11:15:51;;;;;;;6.50;2.70;;;;;;;17.82;29.46;99530.89;2215362;80;27675;-61
2021/05/06 11:18:57;;;;;;;5.00;2.20;;;;;;;17.74;29.78;99522.11;2217340;80;31114;-61
2021/05/06 11:21:58;;;;;;;2.25;1.52;;;;;;;17.56;29.98;99545.83;2217297;80;31169;-61
2021/05/06 11:25:01;;;;;;;3.33;2.17;;;;;;;17.43;29.92;99543.89;2217208;80;33002;-61
2021/05/06 11:28:15;;;;;;;5.00;1.70;;;;;;;16.89;30.36;99554.92;2217405;80;30042;-61
2021/05/06 11:31:23;;;;;;;6.17;3.12;;;;;;;16.89;30.36;99554.92;2185548;80;27601;-62
2021/05/06 11:34:37;;;;;;;5.40;2.45;;;;;;;16.68;31.89;99615.31;2209401;80;29245;-61
2021/05/06 11:37:39;;;;;;;7.92;3.10;;;;;;;16.27;33.76;99645.41;2217264;79;32154;-61
2021/05/06 11:40:41;;;;;;;2.65;2.40;;;;;;;15.91;35.75;99627.23;2216317;80;33182;-61
2021/05/06 11:43:54;;;;;;;3.22;2.58;;;;;;;15.55;36.31;99611.22;2217377;79;29703;-61
2021/05/06 11:46:57;;;;;;;3.58;1.95;;;;;;;15.44;38.66;99595.89;2217376;80;27678;-61
2021/05/06 11:49:59;;;;;;;3.62;2.10;;;;;;;15.65;39.28;99582.46;2217118;80;29723;-60
2021/05/06 11:53:03;;;;;;;2.70;2.17;;;;;;;15.85;39.91;99570.53;2216877;80;31154;-61
2021/05/06 11:56:17;;;;;;;2.77;1.90;;;;;;;15.84;39.19;99567.91;2216817;80;33185;-61
2021/05/06 11:59:21;;;;;;;3.95;1.90;;;;;;;15.85;39.60;99569.63;2216890;80;29152;-62
2021/05/06 12:02:24;;;;;;;3.40;2.40;;;;;;;15.84;39.92;99567.44;2217188;80;27675;-61
2021/05/06 12:05:56;;;;;;;4.47;2.37;;;;;;;15.81;39.98;99555.53;2216250;80;28832;-62
2021/05/06 12:09:06;;;;;;;3.80;2.60;;;;;;;15.75;39.53;99544.75;2217065;80;32155;-61
2021/05/06 12:12:08;;;;;;;3.45;2.55;;;;;;;15.69;39.38;99529.05;2216909;80;34043;-61
2021/05/06 12:15:12;;;;;;;6.37;2.70;;;;;;;15.57;39.22;99531.43;2216997;80;29343;-60
2021/05/06 12:18:22;;;;;;;6.62;3.08;;;;;;;15.55;39.61;99528.00;2217124;80;27679;-61
2021/05/06 12:21:35;;;;;;;3.90;2.52;;;;;;;15.54;39.35;99523.58;2216966;80;28884;-61
2021/05/06 12:24:41;;;;;;;2.37;1.82;;;;;;;15.52;38.95;99520.15;2216780;80;31149;-61
2021/05/06 12:27:43;;;;;;;2.45;1.90;;;;;;;15.49;38.97;99514.52;2204849;80;34207;-61
2021/05/06 12:30:46;;;;;;;4.03;1.80;;;;;;;15.52;39.00;99509.35;2178275;81;29154;-61
2021/05/06 12:33:49;;;;;;;4.50;2.42;;;;;;;15.55;38.68;99507.27;2176181;80;28062;-62
2021/05/06 12:36:59;;;;;;;3.90;1.82;;;;;;;15.57;38.49;99497.18;2177681;80;28838;-61
2021/05/06 12:40:05;;;;;;;6.25;2.45;;;;;;;15.64;38.52;99501.56;2178199;80;31183;-61
2021/05/06 12:43:27;;;;;;;6.05;2.22;;;;;;;15.76;38.33;99503.26;2177658;81;33225;-61
2021/05/06 12:46:27;;;;;;;5.00;2.05;;;;;;;15.96;38.32;99495.34;2177949;81;29235;-61
2021/05/06 12:49:30;;;;;;;2.95;1.62;;;;;;;16.18;38.54;99494.36;2189249;79;28045;-61
2021/05/06 12:52:39;;;;;;;4.35;1.60;;;;;;;16.38;38.04;99486.37;2192569;81;28821;-61
2021/05/06 12:55:43;;;;;;;2.42;1.77;;;;;;;16.67;38.10;99482.94;2192561;79;31192;-60
2021/05/06 12:58:46;;;;;;;3.40;1.80;;;;;;;17.19;37.32;99473.37;2192587;81;33109;-60
2021/05/06 13:01:48;;;;;;;8.98;2.47;;;;;;;17.19;37.32;99473.37;2231405;79;29205;-61
2021/05/06 13:04:57;;;;;;;3.47;2.80;;;;;;;17.23;37.19;99476.64;2231450;79;27780;-61
2021/05/06 13:07:59;;;;;;;2.40;1.85;;;;;;;17.10;37.20;99456.11;2231122;79;28862;-60
2021/05/06 13:11:04;;;;;;;6.35;2.45;;;;;;;17.01;36.87;99474.04;2231908;79;32035;-61
2021/05/06 13:14:07;;;;;;;7.22;2.37;;;;;;;16.77;37.11;99482.98;2232092;79;33112;-60
2021/05/06 13:17:29;;;;;;;2.92;1.92;;;;;;;16.52;37.25;99479.25;2231792;79;29707;-61
2021/05/06 13:20:32;;;;;;;3.65;1.80;;;;;;;16.52;37.84;99470.27;2231126;79;27624;-59
2021/05/06 13:23:35;;;;;;;3.77;2.05;;;;;;;16.62;37.44;99464.42;2231870;79;31102;-61
2021/05/06 13:26:41;;;;;;;2.80;2.10;;;;;;;16.62;37.21;99462.20;2231967;79;32174;-60
2021/05/06 13:29:50;;;;;;;6.92;2.70;;;;;;;16.60;37.21;99459.64;2231858;79;33128;-61
2021/05/06 13:32:53;;;;;;;4.80;2.25;;;;;;;16.63;37.03;99459.86;2231882;79;29148;-60
2021/05/06 13:36:08;;;;;;;2.95;2.15;;;;;;;16.55;37.58;99455.97;2222804;79;27797;-60
2021/05/06 13:39:14;;;;;;;12.55;2.50;;;;;;;16.42;37.73;99458.56;2231114;79;29686;-61
2021/05/06 13:42:16;;;;;;;1.90;1.60;;;;;;;16.36;37.87;99457.26;2231637;79;31140;-65
2021/05/06 13:45:18;;;;;;;2.35;1.37;;;;;;;16.36;38.04;99441.04;2231648;79;32978;-65
2021/05/06 13:48:20;;;;;;;3.02;1.62;;;;;;;16.37;37.31;99443.59;2206174;79;29601;-66
2021/05/06 13:51:24;;;;;;;4.55;2.10;;;;;;;16.46;37.36;99438.39;2177422;81;28281;-65
2021/05/06 13:54:28;;;;;;;4.67;3.12;;;;;;;16.50;37.68;99437.97;2177990;81;28888;-65
2021/05/06 13:57:32;;;;;;;9.80;4.67;;;;;;;16.54;37.24;99440.77;2177993;81;31157;-60
2021/05/06 14:00:34;;;;;;;9.90;4.75;;;;;;;16.58;37.61;99421.55;2177936;81;33264;-63
2021/05/06 14:03:37;;;;;;;8.38;5.17;;;;;;;16.67;37.22;99426.15;2177877;81;31526;-63
2021/05/06 14:06:40;;;;;;;3.02;1.70;;;;;;;16.71;37.32;99418.12;2177913;80;27832;-61
2021/05/06 14:09:43;;;;;;;4.20;2.50;;;;;;;16.63;36.09;99412.53;2194623;80;28898;-62
2021/05/06 14:12:45;;;;;;;3.90;2.08;;;;;;;16.39;36.30;99419.99;2192810;79;31146;-66
2021/05/06 14:15:48;;;;;;;3.17;2.20;;;;;;;16.12;36.21;99424.62;2193750;80;33966;-63
2021/05/06 14:18:51;;;;;;;3.70;2.27;;;;;;;15.90;36.87;99433.73;2201550;79;29259;-68
2021/05/06 14:21:54;;;;;;;3.67;2.15;;;;;;;15.62;37.94;99432.02;2191029;80;27772;-65
2021/05/06 14:24:57;;;;;;;7.37;2.77;;;;;;;15.32;38.29;99428.20;2192952;80;28814;-67
2021/05/06 14:28:01;;;;;;;9.08;2.17;;;;;;;15.13;38.52;99430.23;2195834;80;32067;-62
2021/05/06 14:31:03;;;;;;;5.28;2.25;;;;;;;15.00;38.84;99431.25;2187493;80;33990;-63
2021/05/06 14:34:05;;;;;;;3.25;2.72;;;;;;;14.95;39.15;99428.07;2189619;80;30055;-66
2021/05/06 14:37:07;;;;;;;2.22;1.70;;;;;;;14.94;39.92;99417.42;2207340;80;27643;-65
2021/05/06 14:40:13;;;;;;;3.65;2.05;;;;;;;15.00;39.96;99409.67;2157598;81;28825;-66
2021/05/06 14:43:15;;;;;;;3.65;2.20;;;;;;;15.07;40.12;99403.75;2216951;80;31195;-67
2021/05/06 14:46:19;;;;;;;3.02;1.95;;;;;;;15.15;39.95;99394.03;2216861;80;34383;-63
2021/05/06 14:49:22;;;;;;;5.42;3.92;;;;;;;15.24;40.02;99388.88;2207906;80;29164;-63
2021/05/06 14:52:24;;;;;;;4.83;2.90;;;;;;;15.36;40.13;99393.23;2217174;80;27687;-63
2021/05/06 14:55:27;;;;;;;5.30;1.90;;;;;;;15.44;40.06;99387.17;2216594;80;28822;-63
2021/05/06 14:58:30;;;;;;;2.47;1.80;;;;;;;15.47;39.38;99382.37;2216866;80;32308;-62
2021/05/06 15:01:33;;;;;;;3.47;2.00;;;;;;;15.42;39.12;99384.63;2216470;80;33200;-63
2021/05/06 15:04:35;;;;;;;4.08;2.08;;;;;;;15.31;39.16;99389.57;2217130;79;29166;-62
2021/05/06 15:07:38;;;;;;;9.85;4.37;;;;;;;15.31;39.57;99377.91;2216990;80;27747;-62
2021/05/06 15:10:40;;;;;;;3.70;2.10;;;;;;;15.36;39.66;99372.98;2216942;80;28916;-63
2021/05/06 15:13:42;;;;;;;3.55;1.95;;;;;;;15.41;39.72;99377.51;2217342;80;31136;-63
2021/05/06 15:16:46;;;;;;;2.70;2.00;;;;;;;15.40;39.63;99377.14;2217330;80;29289;-63
2021/05/06 15:19:49;;;;;;;3.40;2.20;;;;;;;15.43;39.55;99364.75;2217237;80;29107;-63
2021/05/06 15:22:53;;;;;;;5.30;1.87;;;;;;;15.48;38.93;99359.78;2217322;80;27596;-63
2021/05/06 15:25:55;;;;;;;5.55;2.22;;;;;;;15.46;38.81;99357.74;2217252;80;28855;-63
2021/05/06 15:28:58;;;;;;;6.03;1.90;;;;;;;15.42;38.55;99350.89;2217206;80;31638;-63
2021/05/06 15:32:00;;;;;;;12.60;6.30;;;;;;;15.46;39.07;99359.56;2217274;79;33120;-63
2021/05/06 15:35:05;;;;;;;4.72;2.70;;;;;;;15.50;39.03;99363.73;2217232;80;29152;-63
2021/05/06 15:38:08;;;;;;;5.97;2.30;;;;;;;15.50;38.80;99366.42;2217399;80;28207;-63
2021/05/06 15:41:11;;;;;;;5.87;1.95;;;;;;;15.50;38.88;99376.71;2217246;80;29691;-63
2021/05/06 15:44:13;;;;;;;5.12;2.17;;;;;;;15.48;38.97;99367.05;2217317;80;31136;-66
2021/05/06 15:47:15;;;;;;;4.95;2.47;;;;;;;15.52;39.12;99367.16;2216990;80;33972;-64
2021/05/06 15:50:18;;;;;;;2.87;2.42;;;;;;;15.56;39.01;99356.94;2216713;80;29923;-66
2021/05/06 15:53:21;;;;;;;3.98;1.62;;;;;;;15.53;39.18;99352.67;2217462;80;27597;-64
2021/05/06 15:56:24;;;;;;;2.67;1.87;;;;;;;15.50;39.01;99352.92;2217436;80;29772;-63
2021/05/06 15:59:26;;;;;;;5.80;2.35;;;;;;;15.47;39.05;99354.03;2217331;80;30322;-64
2021/05/06 16:02:30;;;;;;;4.58;2.08;;;;;;;15.51;39.09;99343.84;2217376;80;33101;-63
2021/05/06 16:05:35;;;;;;;4.62;1.80;;;;;;;15.62;39.04;99332.13;2217410;80;30469;-63
2021/05/06 16:08:36;;;;;;;3.67;2.33;;;;;;;15.68;38.99;99345.58;2217199;80;27802;-64
2021/05/06 16:11:38;;;;;;;3.15;2.00;;;;;;;15.63;38.68;99341.94;2207482;78;28821;-64
2021/05/06 16:14:41;;;;;;;2.85;1.77;;;;;;;15.58;38.83;99334.72;2178617;81;31582;-63
2021/05/06 16:17:43;;;;;;;2.92;1.75;;;;;;;15.53;38.44;99334.25;2177865;81;33561;-63
2021/05/06 16:20:46;;;;;;;6.45;2.33;;;;;;;15.46;38.56;99330.75;2178722;81;29714;-63
2021/05/06 16:23:48;;;;;;;4.87;2.30;;;;;;;15.40;38.47;99337.14;2190806;80;27786;-63
2021/05/06 16:26:52;;;;;;;3.40;1.80;;;;;;;15.30;38.12;99327.14;2217349;80;28797;-64
2021/05/06 16:29:55;;;;;;;6.10;2.43;;;;;;;15.21;38.21;99329.29;2178970;81;32074;-63
2021/05/06 16:36:30;;;;;;;6.40;1.80;;;;;;;15.07;38.37;99327.75;2343087;75;32716;-63
2021/05/06 16:39:37;;;;;;;5.92;1.52;;;;;;;14.90;37.94;99329.15;2293536;77;28147;-63
2021/05/06 16:42:33;;;;;;;2.83;1.98;;;;;;;14.78;38.10;99326.13;2259344;78;28816;-63
2021/05/06 16:45:33;;;;;;;5.57;2.07;;;;;;;14.65;38.12;99330.30;2261681;77;31680;-62
2021/05/06 16:48:36;;;;;;;3.55;1.98;;;;;;;14.55;38.14;99336.96;2261239;78;33082;-62
2021/05/06 16:51:38;;;;;;;4.65;2.10;;;;;;;14.46;38.50;99334.53;2274110;77;29414;-75
2021/05/06 16:54:42;;;;;;;4.62;1.98;;;;;;;14.37;38.57;99330.74;2273055;77;28021;-62
2021/05/06 16:57:44;;;;;;;4.23;2.63;;;;;;;14.32;38.73;99332.95;2262015;77;29794;-61
2021/05/06 17:00:46;;;;;;;5.72;2.22;;;;;;;14.28;38.84;99328.78;2261642;78;31896;-61
2021/05/06 17:03:48;;;;;;;7.58;3.22;;;;;;;14.24;38.93;99330.00;2261918;77;35380;-62
2021/05/06 17:06:59;;;;;;;5.30;2.95;;;;;;;14.17;38.93;99328.80;2261772;78;28894;-63
2021/05/06 17:10:01;;;;;;;5.05;3.47;;;;;;;14.17;39.34;99334.19;2261805;78;27701;-62
2021/05/06 17:13:10;;;;;;;4.50;2.10;;;;;;;14.13;39.64;99343.02;2292382;77;28813;-62
2021/05/06 17:16:09;;;;;;;3.22;1.98;;;;;;;14.06;39.51;99335.91;2303309;77;31117;-62
2021/05/06 17:19:12;;;;;;;6.75;3.95;;;;;;;13.97;39.39;99332.59;2303471;77;33103;-61
2021/05/06 17:22:14;;;;;;;8.68;4.60;;;;;;;13.91;39.91;99335.76;2303429;77;28839;-62
2021/05/06 17:25:18;;;;;;;28.30;18.77;;;;;;;13.82;40.03;99335.52;2303255;77;27613;-62
2021/05/06 17:28:20;;;;;;;7.97;5.15;;;;;;;13.74;40.17;99327.18;2282928;77;30097;-62
2021/05/06 17:31:23;;;;;;;10.00;4.72;;;;;;;13.66;40.15;99324.25;2288431;77;31338;-63
2021/05/06 17:34:27;;;;;;;9.80;4.40;;;;;;;13.58;40.44;99322.63;2289930;75;33297;-62
2021/05/06 17:37:29;;;;;;;10.38;5.20;;;;;;;13.52;40.55;99322.63;2269805;77;29833;-62
2021/05/06 17:40:32;;;;;;;14.78;6.70;;;;;;;13.46;40.80;99316.39;2285484;76;27595;-62
2021/05/06 17:43:34;;;;;;;16.12;6.90;;;;;;;13.41;40.91;99311.34;2284162;77;31155;-76
2021/05/06 17:46:36;;;;;;;12.18;5.47;;;;;;;13.36;41.23;99318.41;2302496;77;31233;-78
2021/05/06 17:49:38;;;;;;;10.05;4.42;;;;;;;13.29;41.13;99303.73;2284216;77;34017;-62
2021/05/06 17:52:41;;;;;;;9.98;4.37;;;;;;;13.22;41.47;99307.86;2300478;77;28920;-62
2021/05/06 17:55:43;;;;;;;6.72;3.52;;;;;;;13.19;41.71;99305.39;2300405;77;27707;-63
2021/05/06 17:58:49;;;;;;;13.62;3.33;;;;;;;13.12;41.61;99309.55;2300348;77;28819;-63
2021/05/06 18:01:49;;;;;;;13.13;3.90;;;;;;;13.06;42.01;99304.16;2192919;80;31141;-62